Mills, New Mexico
Current Conditions -  °F | °C
As of 2:53 PM on Tuesday 21 Oct 2014 (Local Time) from KRTN Reporting Station
Broken Clouds Broken Clouds  
Wind Chill: 65°   Ceiling: 6000
Heat Index: 65°   Visibility: 10mi
Dew Point: 43°   Wind: 20mph
Humidity: 45%   Direction: 190°S
Pressure: 30.07"   Gusts: 28mph
Location:  36.08°N, 104.26°W
Report Text: KRTN 212053Z AUTO 19017G24KT 10SM FEW049 BKN060 18/06 A3007 RMK AO2 PK WND 15026/2011 SLP126 T01830061 58025
Loading
Personal Weather Stations






























Interactive Weather Map
Tropical Storm Tracking
New forecast layout! Learn more

10-Day Weather Forecast

Advertisements
Track Severe Weather on mobile